Upper Island Cove, Canada
Current Conditions -  °F | °C
As of 10:00 PM on Saturday 22 Nov 2014 (Local Time) from CYYT Reporting Station
Few Clouds Few Clouds  
Wind Chill: 14°   Ceiling: Unl
Heat Index: 27°   Visibility: 15mi
Dew Point: 14°   Wind: 17mph
Humidity: 59%   Direction: 270°W
Pressure: 29.75"   Gusts: 28mph
Location:  47.65°N, 53.22°W
Report Text: CYYT 230100Z 27015G24KT 15SM FEW040 M03/M10 A2975 RMK SC1 SLP081
Loading
Personal Weather Stations






























Interactive Weather Map New forecast layout! Learn more

10-Day Weather Forecast

Advertisements
Track Severe Weather on mobile